Ranchita (211) Station Data

Red Flag Warning: Yes
Fire Weather Zone: 258
SDGE Region: Ramona
Lat/Lon: 33.21/-116.508

Observations

Time Wind Speed/Gust Temp(F) RH Fuel Moist Fuel Temp(F) Dewpt(F) Tmax(F) Tmin(F) Accum Precip 10-min Precip SL Press(mb)
6/27 5:00pm 264 25 G 34 83° 13% - - 27° 88.3° 65.3° - - 1008.0
6/27 4:50pm 266 25 G 33 83° 12% - - 26° 88.3° 65.3° - - 1008.0
6/27 4:40pm 263 25 G 34 84° 13% - - 27° 88.3° 65.3° - - 1008.0
6/27 4:30pm 266 25 G 35 84° 13% - - 28° 88.3° 65.3° - - 1008.0
6/27 4:20pm 264 24 G 35 84° 14% - - 30° 88.3° 65.3° - - 1008.0
6/27 4:10pm 266 23 G 34 85° 14% - - 30° 88.3° 65.3° - - 1008.0
6/27 4:00pm 263 23 G 33 85° 14% - - 30° 88.3° 65.3° - - 1008.0
6/27 3:50pm 266 24 G 32 85° 13% - - 29° 88.3° 65.3° - - 1008.0
6/27 3:40pm 267 25 G 37 85° 13% - - 28° 88.3° 65.3° - - 1008.0
6/27 3:30pm 265 24 G 33 86° 12% - - 28° 88.3° 65.3° - - 1008.0
6/27 3:20pm 269 24 G 35 86° 12% - - 27° 88.3° 65.3° - - 1008.0
6/27 3:10pm 269 25 G 33 86° 12% - - 27° 88.3° 65.3° - - 1008.0
6/27 3:00pm 275 25 G 35 86° 12% - - 28° 88.3° 65.3° - - 1008.0
6/27 2:50pm 277 25 G 34 86° 13% - - 29° 88.3° 65.3° - - 1008.0
6/27 2:40pm 263 26 G 35 86° 14% - - 31° 88.3° 65.3° - - 1008.0
6/27 2:30pm 267 24 G 36 87° 13% - - 31° 88.3° 65.3° - - 1008.0
6/27 2:20pm 271 26 G 35 87° 12% - - 27° 88.3° 65.3° - - 1008.0
6/27 2:10pm 273 26 G 36 87° 10% - - 24° 88.3° 65.3° - - 1008.0
6/27 2:00pm 268 28 G 39 87° 8% - - 20° 88.3° 65.3° - - 1008.0
6/27 1:50pm 268 25 G 35 88° 9% - - 21° 88.3° 65.3° - - 1008.0
6/27 1:40pm 267 26 G 34 87° 8% - - 20° 88.3° 65.3° - - 1008.0
6/27 1:30pm 271 24 G 36 87° 9% - - 21° 88.2° 65.3° - - 1008.0
6/27 1:20pm 271 25 G 36 87° 8% - - 20° 88.1° 65.3° - - 1008.0
6/27 1:10pm 270 25 G 36 87° 8% - - 19° 88.1° 65.3° - - 1008.0
6/27 1:00pm 271 24 G 35 87° 8% - - 18° 88.1° 65.3° - - 1008.0
6/27 12:50pm 278 24 G 34 87° 8% - - 19° 88.1° 65.3° - - 1008.0
6/27 12:40pm 272 26 G 33 86° 8% - - 19° 87.5° 65.3° - - 1008.0
6/27 12:30pm 275 25 G 36 86° 8% - - 19° 87.5° 65.3° - - 1008.0
6/27 12:20pm 274 26 G 36 86° 8% - - 19° 87.5° 65.3° - - 1008.0
6/27 12:10pm 276 26 G 38 86° 9% - - 20° 87.5° 65.3° - - 1008.0
6/27 12:00pm 277 25 G 38 86° 9% - - 20° 87.5° 65.3° - - 1008.0
6/27 11:50am 274 27 G 40 86° 8% - - 19° 86.5° 65.3° - - 1008.0
6/27 11:40am 277 27 G 37 85° 8% - - 19° 86.3° 65.3° - - 1008.0
6/27 11:30am 276 26 G 37 85° 9% - - 20° 86° 65.3° - - 1009.0
6/27 11:20am 274 27 G 35 85° 9% - - 20° 85.2° 65.3° - - 1009.0
6/27 11:10am 275 25 G 35 84° 10% - - 21° 85° 65.3° - - 1009.0
6/27 11:00am 274 26 G 35 83° 10% - - 21° 84.1° 65.3° - - 1009.0
6/27 10:50am 276 26 G 35 83° 10% - - 21° 83.6° 65.3° - - 1009.0
6/27 10:40am 278 25 G 33 83° 11% - - 23° 83.3° 65.3° - - 1010.0
6/27 10:30am 277 23 G 32 83° 11% - - 23° 83.3° 65.3° - - 1010.0
6/27 10:20am 281 23 G 33 82° 11% - - 23° 82.9° 65.3° - - 1010.0
6/27 10:10am 285 24 G 35 81° 11% - - 21° 81.3° 65.3° - - 1010.0
6/27 10:00am 280 23 G 32 81° 11% - - 21° 81.1° 65.3° - - 1010.0
6/27 9:50am 276 22 G 31 80° 11% - - 20° 81° 65.3° - - 1011.0
6/27 9:40am 272 21 G 29 80° 10% - - 20° 80.4° 65.3° - - 1011.0
6/27 9:30am 272 20 G 28 80° 10% - - 20° 80.4° 65.3° - - 1011.0
6/27 9:20am 276 20 G 27 80° 10% - - 19° 80.3° 65.3° - - 1011.0
6/27 9:10am 272 20 G 27 79° 11% - - 20° 80° 65.3° - - 1011.0
6/27 8:50am 282 18 G 26 79° 10% - - 18° 80° 65.3° - - 1011.0
6/27 8:40am 286 16 G 24 80° 10% - - 18° 80° 65.3° - - 1011.0
6/27 8:30am 286 17 G 24 79° 10% - - 17° 79.5° 65.3° - - 1011.0
6/27 8:20am 282 15 G 21 78° 10% - - 18° 79.1° 65.3° - - 1011.0
6/27 8:10am 276 14 G 20 77° 11% - - 19° 77.9° 65.3° - - 1012.0
6/27 8:00am 275 14 G 20 76° 12% - - 20° 76.7° 65.3° - - 1012.0
6/27 7:40am 277 14 G 19 76° 11% - - 17° 76.5° 65.3° - - 1012.0
6/27 7:30am 276 13 G 17 76° 11% - - 17° 76.5° 65.3° - - 1012.0
6/27 7:20am 276 14 G 19 75° 11% - - 16° 76.5° 65.3° - - 1012.0
6/27 7:10am 276 13 G 19 75° 11% - - 16° 76.5° 65.3° - - 1012.0
6/27 7:00am 275 13 G 19 74° 11% - - 16° 76.5° 65.3° - - 1012.0
6/27 6:50am 279 14 G 23 75° 10% - - 15° 76.5° 65.3° - - 1012.0
6/27 6:40am 286 13 G 20 75° 10% - - 15° 76.3° 65.3° - - 1012.0
6/27 6:30am 282 13 G 22 75° 10% - - 15° 76.1° 65.3° - - 1012.0
6/27 6:20am 291 15 G 23 76° 10% - - 15° 76° 65.3° - - 1011.0
6/27 6:10am 293 17 G 25 76° 10% - - 15° 76° 65.3° - - 1011.0
6/27 6:00am 291 17 G 27 75° 10% - - 15° 75.9° 65.3° - - 1011.0
6/27 5:50am 293 17 G 27 76° 10% - - 15° 75.9° 65.3° - - 1011.0
6/27 5:40am 296 18 G 29 75° 10% - - 16° 75.9° 65.3° - - 1011.0
6/27 5:30am 282 14 G 29 71° 12% - - 17° 75.4° 65.3° - - 1012.0
6/27 5:20am 264 10 G 19 68° 14% - - 18° 74.8° 65.3° - - 1013.0
6/27 5:10am 267 11 G 18 68° 14% - - 18° 74.8° 65.3° - - 1013.0
6/27 5:00am 276 14 G 25 72° 13% - - 18° 74.8° 65.3° - - 1012.0
6/27 4:50am 272 15 G 31 69° 14% - - 18° 74.8° 65.3° - - 1013.0
6/27 4:40am 263 13 G 21 68° 15% - - 18° 74.8° 65.3° - - 1013.0
6/27 4:30am 263 15 G 22 67° 15% - - 19° 74.8° 65.3° - - 1013.0
6/27 4:20am 264 15 G 20 67° 15% - - 19° 74.8° 65.3° - - 1013.0
6/27 4:10am 267 15 G 22 67° 16% - - 19° 74.8° 65.3° - - 1013.0
6/27 4:00am 268 14 G 18 66° 17% - - 19° 74.8° 65.3° - - 1014.0
6/27 3:50am 271 14 G 19 66° 17% - - 19° 74.8° 65.4° - - 1013.0
6/27 3:40am 271 15 G 19 66° 16% - - 19° 74.8° 66° - - 1013.0
6/27 3:30am 268 15 G 20 67° 16% - - 19° 74.8° 66° - - 1013.0
6/27 3:20am 270 16 G 23 70° 14% - - 18° 74.8° 68.9° - - 1012.0
6/27 3:10am 271 17 G 21 71° 13% - - 18° 74.8° 69.2° - - 1012.0
6/27 3:00am 276 18 G 26 73° 13% - - 18° 74.8° 69.2° - - 1011.0
6/27 2:50am 281 20 G 30 74° 12% - - 18° 74.8° 69.2° - - 1011.0
6/27 2:40am 281 20 G 29 74° 12% - - 18° 74.8° 69.2° - - 1011.0
6/27 2:30am 277 17 G 26 71° 14% - - 18° 74.8° 69.2° - - 1012.0
6/27 2:20am 273 16 G 22 72° 13% - - 18° 74.8° 69.3° - - 1012.0
6/27 2:10am 281 20 G 29 74° 12% - - 18° 74.8° 73.3° - - 1011.0
6/27 2:00am 280 21 G 29 74° 11% - - 17° 74.8° 73.3° - - 1011.0
6/27 1:50am 279 19 G 27 74° 12% - - 17° 74.8° 73.3° - - 1011.0
6/27 1:40am 276 20 G 27 74° 12% - - 18° 74.8° 73.3° - - 1011.0
6/27 1:30am 280 21 G 28 74° 12% - - 19° 74.8° 73.5° - - 1011.0
6/27 1:20am 280 22 G 31 74° 12% - - 19° 74.8° 73.5° - - 1011.0
6/27 1:10am 281 21 G 31 74° 12% - - 19° 74.8° 73.5° - - 1012.0
6/27 1:00am 277 21 G 30 75° 12% - - 19° 74.8° 73.5° - - 1012.0
6/27 12:50am 279 20 G 26 74° 12% - - 19° 74.7° 73.5° - - 1012.0
6/27 12:40am 279 20 G 28 74° 12% - - 19° 74.5° 73.5° - - 1012.0
6/27 12:30am 277 19 G 26 74° 13% - - 19° 74.2° 73.5° - - 1012.0
6/27 12:20am 279 19 G 28 74° 13% - - 20° 74.2° 73.5° - - 1012.0
6/27 12:10am 277 20 G 26 74° 14% - - 21° 73.9° 73.5° - - 1012.0
6/27 12:00am 279 20 G 27 74° 14% - - 22° 93.1° 72.7° - - 1012.0
6/26 11:50pm 283 21 G 29 74° 13% - - 20° 93.1° 72.7° - - 1012.0
6/26 11:40pm 287 21 G 31 75° 12% - - 19° 93.1° 72.7° - - 1012.0
6/26 11:30pm 282 18 G 29 75° 12% - - 19° 93.1° 72.7° - - 1012.0
6/26 11:20pm 284 17 G 28 74° 13% - - 20° 93.1° 72.7° - - 1012.0
6/26 11:10pm 284 22 G 30 74° 13% - - 21° 93.1° 72.7° - - 1012.0
6/26 11:00pm 284 20 G 31 75° 13% - - 21° 93.1° 72.7° - - 1012.0
6/26 10:50pm 283 20 G 28 75° 13% - - 21° 93.1° 72.7° - - 1012.0
6/26 10:40pm 282 19 G 28 75° 13% - - 21° 93.1° 72.7° - - 1012.0
6/26 10:30pm 280 20 G 27 75° 13% - - 21° 93.1° 72.7° - - 1012.0
6/26 10:20pm 280 21 G 28 75° 14% - - 22° 93.1° 72.7° - - 1012.0
6/26 10:10pm 278 22 G 29 75° 14% - - 22° 93.1° 72.7° - - 1012.0
6/26 10:00pm 276 23 G 32 75° 14% - - 22° 93.1° 72.7° - - 1012.0
6/26 9:50pm 275 24 G 34 75° 14% - - 23° 93.1° 72.7° - - 1012.0
6/26 9:40pm 277 24 G 33 75° 14% - - 24° 93.1° 72.7° - - 1012.0
6/26 9:30pm 278 25 G 36 76° 15% - - 24° 93.1° 72.7° - - 1012.0
6/26 9:20pm 278 23 G 32 76° 15% - - 24° 93.1° 72.7° - - 1012.0
6/26 9:10pm 278 23 G 32 76° 14% - - 24° 93.1° 72.7° - - 1012.0
6/26 9:00pm 277 23 G 31 76° 14% - - 23° 93.1° 72.7° - - 1012.0
6/26 8:50pm 279 22 G 31 77° 13% - - 23° 93.1° 72.7° - - 1012.0
6/26 8:40pm 279 22 G 29 77° 13% - - 22° 93.1° 72.7° - - 1012.0
6/26 8:30pm 279 18 G 25 77° 12% - - 21° 93.1° 72.7° - - 1012.0
6/26 8:20pm 281 18 G 25 78° 12% - - 21° 93.1° 72.7° - - 1012.0
6/26 8:10pm 280 16 G 23 78° 11% - - 20° 93.1° 72.7° - - 1012.0
6/26 8:00pm 280 14 G 18 79° 11% - - 19° 93.1° 72.7° - - 1012.0
6/26 7:50pm 278 13 G 18 80° 10% - - 19° 93.1° 72.7° - - 1012.0
6/26 7:40pm 276 13 G 19 82° 10% - - 19° 93.1° 72.7° - - 1012.0
6/26 7:30pm 268 14 G 20 82° 9% - - 19° 93.1° 72.7° - - 1011.0
6/26 7:20pm 264 15 G 23 83° 9% - - 19° 93.1° 72.7° - - 1011.0
6/26 7:10pm 264 16 G 23 84° 9% - - 19° 93.1° 72.7° - - 1011.0
6/26 7:00pm 260 16 G 23 84° 9% - - 19° 93.1° 72.7° - - 1011.0
6/26 6:50pm 262 18 G 27 85° 9% - - 19° 93.1° 72.7° - - 1011.0
6/26 6:40pm 260 18 G 26 85° 9% - - 20° 93.1° 72.7° - - 1011.0
6/26 6:30pm 269 19 G 30 85° 9% - - 20° 93.1° 72.7° - - 1011.0
6/26 6:20pm 266 20 G 29 86° 9% - - 20° 93.1° 72.7° - - 1010.0
6/26 6:10pm 268 20 G 30 86° 9% - - 20° 93.1° 72.7° - - 1010.0
6/26 6:00pm 266 19 G 29 86° 9% - - 20° 93.1° 72.7° - - 1010.0
6/26 5:50pm 268 20 G 30 87° 9% - - 22° 93.1° 72.7° - - 1010.0
6/26 5:40pm 264 19 G 29 87° 9% - - 22° 93.1° 72.7° - - 1010.0
6/26 5:30pm 267 19 G 28 88° 9% - - 22° 93.1° 72.7° - - 1010.0
6/26 5:20pm 260 20 G 28 88° 9% - - 22° 93.1° 72.7° - - 1010.0
6/26 5:10pm 266 20 G 29 88° 9% - - 23° 93.1° 72.7° - - 1010.0
6/26 5:00pm 264 21 G 29 88° 9% - - 23° 93.1° 72.7° - - 1011.0
6/26 4:50pm 262 21 G 29 89° 9% - - 23° 93.1° 72.7° - - 1011.0
6/26 4:40pm 265 21 G 29 89° 9% - - 23° 93.1° 72.7° - - 1010.0
6/26 4:30pm 259 19 G 28 90° 9% - - 23° 93.1° 72.7° - - 1010.0
6/26 4:20pm 272 20 G 29 90° 9% - - 23° 93.1° 72.7° - - 1010.0
6/26 4:10pm 260 20 G 30 90° 8% - - 22° 93.1° 72.7° - - 1010.0
6/26 4:00pm 261 20 G 30 90° 8% - - 22° 93.1° 72.7° - - 1010.0
6/26 3:50pm 258 21 G 28 90° 8% - - 22° 93.1° 72.7° - - 1011.0
6/26 3:40pm 260 20 G 28 91° 9% - - 23° 93.1° 72.7° - - 1010.0
6/26 3:30pm 270 20 G 30 91° 9% - - 23° 93.1° 72.7° - - 1010.0
6/26 3:20pm 265 19 G 28 91° 8% - - 22° 93.1° 72.7° - - 1011.0
6/26 3:10pm 262 20 G 29 91° 9% - - 23° 93.1° 72.7° - - 1011.0
6/26 3:00pm 250 20 G 28 91° 8% - - 23° 93.1° 72.7° - - 1011.0
6/26 2:50pm 255 19 G 27 91° 8% - - 23° 93.1° 72.7° - - 1011.0
6/26 2:40pm 256 21 G 31 91° 8% - - 22° 93.1° 72.7° - - 1011.0
6/26 2:30pm 263 18 G 26 92° 9% - - 24° 93.1° 72.7° - - 1011.0
6/26 2:20pm 265 18 G 26 92° 9% - - 24° 93.1° 72.7° - - 1011.0
6/26 2:10pm 266 18 G 26 91° 9% - - 24° 93.1° 72.7° - - 1011.0
6/26 2:00pm 257 20 G 28 91° 8% - - 23° 93.1° 72.7° - - 1011.0
6/26 1:50pm 265 17 G 26 92° 9% - - 24° 93.1° 72.7° - - 1011.0
6/26 1:40pm 273 18 G 27 92° 9% - - 25° 92.7° 72.7° - - 1011.0
6/26 1:30pm 267 18 G 24 91° 9% - - 24° 92.7° 72.7° - - 1011.0
6/26 1:20pm 264 19 G 27 91° 9% - - 25° 92.7° 72.7° - - 1011.0
6/26 1:10pm 272 19 G 27 92° 9% - - 25° 92.7° 72.7° - - 1011.0
6/26 1:00pm 265 17 G 26 92° 9% - - 25° 92.7° 72.7° - - 1011.0
6/26 12:50pm 268 18 G 26 92° 9% - - 25° 92.5° 72.7° - - 1011.0
6/26 12:40pm 266 18 G 26 92° 9% - - 25° 92.5° 72.7° - - 1011.0
6/26 12:30pm 265 18 G 26 92° 9% - - 26° 92.5° 72.7° - - 1011.0
6/26 12:20pm 270 16 G 24 92° 10% - - 26° 92.5° 72.7° - - 1011.0
6/26 12:10pm 270 17 G 30 92° 10% - - 26° 92.4° 72.7° - - 1011.0
6/26 12:00pm 267 16 G 25 92° 10% - - 27° 92.4° 72.7° - - 1011.0
6/26 11:50am 276 17 G 24 91° 10% - - 27° 92.1° 72.7° - - 1011.0
6/26 11:40am 258 16 G 25 91° 10% - - 27° 91.5° 72.7° - - 1011.0
6/26 11:30am 264 14 G 24 90° 10% - - 27° 91.4° 72.7° - - 1012.0
6/26 11:20am 275 16 G 24 90° 10% - - 26° 91.4° 72.7° - - 1012.0
6/26 11:10am 278 15 G 21 91° 10% - - 26° 91.3° 72.7° - - 1012.0
6/26 11:00am 278 14 G 23 90° 10% - - 26° 91.3° 72.7° - - 1012.0
6/26 10:50am 284 14 G 21 90° 10% - - 26° 91.3° 72.7° - - 1012.0
6/26 10:40am 298 14 G 21 90° 10% - - 26° 90.3° 72.7° - - 1012.0
6/26 10:30am 294 15 G 23 89° 10% - - 26° 89.6° 72.7° - - 1012.0
6/26 10:20am 291 15 G 26 89° 10% - - 25° 89.6° 72.7° - - 1012.0
6/26 10:10am 290 15 G 22 89° 10% - - 25° 89.3° 72.7° - - 1012.0
6/26 10:00am 289 14 G 22 89° 10% - - 24° 89.1° 72.7° - - 1012.0
6/26 9:50am 293 15 G 23 89° 10% - - 24° 89.1° 72.7° - - 1012.0
6/26 9:40am 292 16 G 22 88° 10% - - 24° 88.6° 72.7° - - 1012.0
6/26 9:30am 291 15 G 24 88° 10% - - 24° 88.5° 72.7° - - 1012.0
6/26 9:20am 292 14 G 21 88° 10% - - 25° 88.4° 72.7° - - 1012.0
6/26 9:10am 286 13 G 21 88° 10% - - 25° 88.2° 72.7° - - 1012.0
6/26 9:00am 294 13 G 20 87° 10% - - 25° 87.8° 72.7° - - 1012.0
6/26 8:50am 293 13 G 20 87° 10% - - 24° 87.8° 72.7° - - 1012.0
6/26 8:40am 297 13 G 21 87° 10% - - 24° 87.8° 72.7° - - 1012.0
6/26 8:30am 295 13 G 21 87° 10% - - 24° 87.4° 72.7° - - 1012.0
6/26 8:20am 284 12 G 18 87° 11% - - 25° 87.1° 72.7° - - 1012.0
6/26 8:10am 288 10 G 17 86° 11% - - 25° 87.1° 72.7° - - 1012.0
6/26 8:00am 273 9 G 15 83° 14% - - 29° 85.5° 72.7° - - 1013.0
6/26 7:50am 262 8 G 12 80° 18% - - 32° 85.5° 72.7° - - 1014.0
6/26 7:40am 260 8 G 11 80° 17% - - 32° 85.5° 72.7° - - 1014.0
6/26 7:30am 253 6 G 10 80° 17% - - 32° 85.5° 72.7° - - 1014.0
6/26 7:20am 263 7 G 13 82° 14% - - 29° 85.5° 72.7° - - 1013.0
6/26 7:10am 296 10 G 18 85° 11% - - 24° 85.3° 72.7° - - 1012.0
6/26 7:00am 284 8 G 17 81° 13% - - 26° 85.3° 72.7° - - 1013.0
6/26 6:50am 269 6 G 11 77° 17% - - 29° 85.3° 72.7° - - 1014.0
6/26 6:40am 267 7 G 11 77° 17% - - 29° 85.3° 72.7° - - 1014.0
6/26 6:30am 266 8 G 11 76° 19% - - 30° 85.3° 72.7° - - 1014.0
6/26 6:20am 267 7 G 11 75° 19% - - 31° 85.3° 72.7° - - 1014.0
6/26 6:10am 262 5 G 8 74° 20% - - 30° 85.3° 72.7° - - 1014.0
6/26 6:00am 258 7 G 10 74° 19% - - 30° 85.3° 72.7° - - 1014.0